Time;durP1;ratioP1;P1;durP2;ratioP2;P2;SDS_P1;SDS_P2;PMS_P1;PMS_P2;Temp;Humidity;BMP_temperature;BMP_pressure;BME280_temperature;BME280_humidity;BME280_pressure;Samples;Min_cycle;Max_cycle;Signal;HPM_P1;HPM_P2
2022/04/11 00:00:06;;;;;;;11.95;6.18;;;2.70;99.90;;;;;;6193896;23;20089;-78
2022/04/11 05:03:06;;;;;;;15.57;7.95;;;1.80;99.90;;;;;;6154350;23;20299;-79
2022/04/11 05:05:39;;;;;;;14.40;7.57;;;1.80;99.90;;;;;;6165524;23;20001;-80
2022/04/11 05:08:08;;;;;;;14.02;8.73;;;1.70;99.90;;;;;;6139351;23;20005;-79
2022/04/11 05:10:37;;;;;;;19.48;8.77;;;1.70;99.90;;;;;;6138724;23;20033;-78
2022/04/11 05:13:03;;;;;;;17.40;9.25;;;1.70;99.90;;;;;;6163446;23;20061;-81
2022/04/11 05:15:29;;;;;;;15.40;8.52;;;1.70;99.90;;;;;;6163657;23;20017;-79
2022/04/11 05:18:05;;;;;;;15.90;8.43;;;1.80;99.90;;;;;;6137895;23;20006;-79
2022/04/11 05:20:31;;;;;;;19.00;9.40;;;1.80;99.90;;;;;;6138336;23;20025;-78
2022/04/11 05:22:57;;;;;;;18.30;8.65;;;1.90;99.90;;;;;;6164499;23;20032;-79
2022/04/11 05:25:27;;;;;;;19.38;9.90;;;1.90;99.90;;;;;;6139802;23;20002;-80
2022/04/11 05:27:54;;;;;;;22.40;10.30;;;1.90;99.90;;;;;;6138712;23;20073;-79
2022/04/11 05:30:20;;;;;;;18.27;9.38;;;1.90;99.90;;;;;;6162940;23;20006;-79
2022/04/11 05:32:48;;;;;;;21.17;9.57;;;2.00;99.90;;;;;;6162111;23;20326;-79
2022/04/11 05:35:13;;;;;;;18.33;10.15;;;2.10;99.90;;;;;;6136536;23;20005;-79
2022/04/11 05:37:40;;;;;;;19.35;10.43;;;2.20;99.90;;;;;;6162787;23;20010;-78
2022/04/11 05:40:09;;;;;;;19.30;9.55;;;2.40;99.90;;;;;;6137817;23;20025;-79
2022/04/11 05:42:37;;;;;;;16.05;9.30;;;2.50;99.90;;;;;;6138041;23;20025;-80
2022/04/11 05:45:04;;;;;;;16.38;9.70;;;2.70;99.90;;;;;;6137209;23;20067;-79
2022/04/11 05:47:30;;;;;;;14.65;8.45;;;2.90;99.90;;;;;;6113646;23;20005;-79
2022/04/11 05:49:58;;;;;;;17.15;9.07;;;3.00;99.90;;;;;;6162557;23;20013;-79
2022/04/11 05:52:24;;;;;;;13.82;8.60;;;3.20;99.90;;;;;;6134107;23;20156;-78
2022/04/11 05:54:50;;;;;;;15.95;7.75;;;3.30;99.90;;;;;;6138150;23;20089;-78
2022/04/11 05:57:16;;;;;;;17.17;8.65;;;3.40;99.90;;;;;;6137288;23;20013;-79
2022/04/11 05:59:42;;;;;;;12.95;7.03;;;3.50;99.90;;;;;;6138525;23;20001;-79
2022/04/11 06:02:10;;;;;;;15.13;7.72;;;3.60;99.90;;;;;;6188579;23;20028;-79
2022/04/11 06:04:38;;;;;;;12.43;7.55;;;3.70;99.90;;;;;;6216885;23;20064;-80
2022/04/11 06:07:05;;;;;;;18.77;8.52;;;3.80;99.90;;;;;;6168120;23;20093;-79
2022/04/11 06:09:33;;;;;;;12.77;7.47;;;3.80;99.90;;;;;;6192530;23;20021;-80
2022/04/11 06:12:00;;;;;;;13.27;7.60;;;3.80;99.90;;;;;;6167151;23;20027;-80
2022/04/11 06:14:26;;;;;;;14.18;9.07;;;4.00;99.90;;;;;;6167175;23;20040;-80
2022/04/11 06:16:53;;;;;;;14.32;8.18;;;4.10;99.90;;;;;;6191617;23;20311;-81
2022/04/11 06:19:19;;;;;;;16.48;8.60;;;4.20;99.90;;;;;;6216267;23;20032;-80
2022/04/11 06:22:01;;;;;;;;;;;;;;;;;;;;;
2022/04/11 06:25:00;;;;;;;17.65;9.82;;;4.40;99.90;;;;;;6193712;23;20044;-80
2022/04/11 06:27:27;;;;;;;17.20;9.93;;;4.50;99.90;;;;;;6166481;23;20199;-79
2022/04/11 06:29:56;;;;;;;20.70;8.80;;;4.50;99.90;;;;;;6216942;23;20016;-81
2022/04/11 06:32:27;;;;;;;18.48;9.90;;;4.60;99.90;;;;;;6191050;23;20175;-81
2022/04/11 06:34:53;;;;;;;22.00;10.18;;;4.70;99.90;;;;;;6217215;23;20009;-81
2022/04/11 06:37:21;;;;;;;17.55;9.93;;;4.80;99.90;;;;;;6166964;23;20000;-80
2022/04/11 06:39:48;;;;;;;23.15;10.02;;;5.00;99.90;;;;;;6167637;23;20313;-79
2022/04/11 06:42:14;;;;;;;17.67;9.63;;;5.10;99.90;;;;;;6167263;23;20274;-80
2022/04/11 06:44:42;;;;;;;18.35;9.30;;;5.30;99.90;;;;;;6168318;23;20033;-79
2022/04/11 06:47:13;;;;;;;14.40;8.88;;;5.40;99.90;;;;;;6168328;23;20027;-79
2022/04/11 06:49:40;;;;;;;15.65;8.55;;;5.50;99.90;;;;;;6219373;23;20005;-81
2022/04/11 06:52:24;;;;;;;16.10;9.13;;;5.60;99.90;;;;;;6170317;23;20013;-82
2022/04/11 06:54:50;;;;;;;13.88;8.63;;;5.70;99.90;;;;;;6169619;23;20009;-82
2022/04/11 06:57:16;;;;;;;15.65;8.48;;;5.90;99.90;;;;;;6170407;23;20004;-83
2022/04/11 07:00:04;;;;;;;14.35;7.80;;;6.00;99.90;;;;;;6171706;23;20005;-83
2022/04/11 07:02:32;;;;;;;11.88;7.15;;;6.10;99.90;;;;;;6131014;23;20063;-82
2022/04/11 07:04:57;;;;;;;13.77;6.63;;;6.30;99.80;;;;;;6171047;23;20020;-84
2022/04/11 07:07:23;;;;;;;14.07;6.88;;;6.40;99.10;;;;;;6169288;23;20061;-83
2022/04/11 07:19:58;;;;;;;10.27;6.50;;;7.10;95.90;;;;;;6182236;23;20429;-81
2022/04/11 07:22:24;;;;;;;10.65;6.70;;;7.10;96.00;;;;;;6169419;23;20005;-80
2022/04/11 07:24:51;;;;;;;12.82;6.55;;;7.30;96.00;;;;;;6167494;23;20186;-82
2022/04/11 07:27:17;;;;;;;12.48;6.80;;;7.40;95.60;;;;;;6142647;23;20008;-82
2022/04/11 07:29:42;;;;;;;11.00;7.05;;;7.60;95.80;;;;;;6143767;23;20009;-81
2022/04/11 07:32:08;;;;;;;14.13;6.88;;;7.80;95.90;;;;;;6167232;23;20027;-81
2022/04/11 07:34:35;;;;;;;10.90;7.15;;;7.90;95.40;;;;;;6168035;23;20171;-81
2022/04/11 07:37:00;;;;;;;10.77;6.88;;;8.00;95.10;;;;;;6167812;23;20013;-80
2022/04/11 07:39:28;;;;;;;13.80;6.50;;;8.20;94.60;;;;;;6143144;23;20025;-81
2022/04/11 07:41:54;;;;;;;10.82;6.60;;;8.30;94.10;;;;;;6167904;23;20027;-81
2022/04/11 07:48:09;;;;;;;12.77;6.05;;;8.60;93.70;;;;;;6194521;23;20214;-82
2022/04/11 07:50:44;;;;;;;12.48;5.85;;;8.70;92.60;;;;;;6145003;23;20262;-81
2022/04/11 07:53:17;;;;;;;10.63;5.65;;;8.80;92.00;;;;;;6193674;23;20061;-82
2022/04/11 07:56:14;;;;;;;8.75;5.10;;;8.90;91.60;;;;;;6144209;23;20005;-84
2022/04/11 07:58:43;;;;;;;7.75;4.78;;;8.90;91.00;;;;;;6172362;23;20009;-81
2022/04/11 08:01:16;;;;;;;6.50;4.07;;;9.10;90.50;;;;;;6134866;23;20013;-83
2022/04/11 08:03:45;;;;;;;5.63;3.80;;;9.10;90.10;;;;;;6151419;23;20057;-83
2022/04/11 08:06:15;;;;;;;6.32;4.10;;;9.20;89.90;;;;;;6151916;23;20002;-81
2022/04/11 08:08:44;;;;;;;5.95;3.85;;;9.40;90.00;;;;;;6144083;23;20016;-81
2022/04/11 08:11:11;;;;;;;5.43;3.75;;;9.40;88.00;;;;;;6147373;23;20006;-81
2022/04/11 08:13:38;;;;;;;5.93;3.45;;;9.50;88.00;;;;;;6143129;23;20360;-83
2022/04/11 08:16:05;;;;;;;6.70;3.88;;;9.60;87.50;;;;;;6151777;23;20058;-83
2022/04/11 08:18:31;;;;;;;5.78;3.65;;;9.60;86.80;;;;;;6110905;23;20185;-82
2022/04/11 08:20:57;;;;;;;5.03;3.35;;;9.60;86.40;;;;;;6105694;23;20022;-84
2022/04/11 08:27:06;;;;;;;5.93;3.63;;;9.80;86.80;;;;;;6104120;23;20006;-80
2022/04/11 08:30:06;;;;;;;5.38;3.65;;;10.00;85.20;;;;;;6079763;23;20391;-81
2022/04/11 08:32:59;;;;;;;5.60;2.75;;;10.10;85.30;;;;;;6099235;23;20122;-83
2022/04/11 08:36:06;;;;;;;6.00;2.90;;;10.20;82.90;;;;;;6133701;23;20014;-82
2022/04/11 08:39:11;;;;;;;7.70;3.17;;;10.30;82.70;;;;;;6134501;23;20074;-80
2022/04/11 08:42:35;;;;;;;6.10;3.08;;;10.60;82.40;;;;;;6114609;23;20028;-82
2022/04/11 08:45:28;;;;;;;6.13;3.00;;;10.50;81.90;;;;;;6110647;23;20016;-82
2022/04/11 08:47:56;;;;;;;6.27;2.70;;;10.60;82.10;;;;;;6137682;23;20018;-82
2022/04/11 08:50:24;;;;;;;5.55;2.72;;;10.70;82.70;;;;;;6161865;23;20056;-81
2022/04/11 08:53:23;;;;;;;;;;;11.00;82.40;;;;;;6139174;23;20013;-82
2022/04/11 08:56:07;;;;;;;5.15;2.55;;;11.00;79.70;;;;;;6101237;23;19924;-83
2022/04/11 08:58:34;;;;;;;5.68;2.65;;;10.90;80.10;;;;;;6083395;23;20017;-83
2022/04/11 09:01:06;;;;;;;5.35;2.60;;;11.10;80.30;;;;;;6083600;23;20069;-83
2022/04/11 09:03:35;;;;;;;7.85;2.90;;;11.20;79.80;;;;;;6118935;23;20341;-83
2022/04/11 09:06:09;;;;;;;5.38;2.80;;;11.10;79.40;;;;;;6109515;23;20298;-81
2022/04/11 09:08:55;;;;;;;4.75;2.50;;;11.10;79.50;;;;;;6107344;23;20227;-81
2022/04/11 09:11:35;;;;;;;8.13;2.72;;;11.10;79.40;;;;;;6043924;23;20008;-82
2022/04/11 09:14:03;;;;;;;5.90;2.85;;;11.30;79.90;;;;;;6022016;23;20019;-81
2022/04/11 09:16:53;;;;;;;4.65;2.38;;;11.40;78.10;;;;;;6019437;23;20070;-82
2022/04/11 09:26:27;;;;;;;4.75;2.22;;;12.00;78.30;;;;;;6007712;23;20021;-81
2022/04/11 09:29:00;;;;;;;4.18;2.20;;;12.10;76.20;;;;;;5992732;23;20011;-80
2022/04/11 09:31:36;;;;;;;4.25;2.22;;;12.00;76.40;;;;;;5968045;23;20020;-82
2022/04/11 09:34:35;;;;;;;5.05;2.08;;;12.30;76.40;;;;;;6017560;23;20313;-81
2022/04/11 09:37:11;;;;;;;5.65;2.15;;;12.40;76.20;;;;;;6018928;23;20028;-80
2022/04/11 09:42:57;;;;;;;4.13;1.63;;;12.70;74.10;;;;;;6075874;23;20318;-84
2022/04/11 09:45:23;;;;;;;6.82;2.60;;;12.60;72.90;;;;;;6124886;23;20030;-81
2022/04/11 09:48:03;;;;;;;6.07;2.30;;;12.80;72.80;;;;;;6102251;23;19995;-81
2022/04/11 09:51:07;;;;;;;3.92;1.85;;;13.00;73.00;;;;;;6106475;23;20017;-81
2022/04/11 09:53:38;;;;;;;4.20;1.60;;;13.10;72.70;;;;;;6108076;23;20006;-81
2022/04/11 09:56:06;;;;;;;5.68;2.20;;;13.40;72.40;;;;;;6108743;23;20006;-80
2022/04/11 09:58:34;;;;;;;3.72;1.83;;;13.30;70.90;;;;;;6106862;23;20037;-80
2022/04/11 10:01:09;;;;;;;4.75;1.85;;;13.40;72.10;;;;;;6093771;23;20013;-81
2022/04/11 10:04:06;;;;;;;4.40;1.60;;;13.60;70.10;;;;;;6108314;23;20033;-80
2022/04/11 10:06:32;;;;;;;3.00;1.63;;;13.70;69.60;;;;;;6107578;23;20078;-82
2022/04/11 10:09:06;;;;;;;4.18;1.52;;;13.70;70.30;;;;;;6107783;23;20335;-82
2022/04/11 10:11:45;;;;;;;4.15;1.55;;;14.00;70.60;;;;;;6107351;23;20032;-82
2022/04/11 10:30:03;;;;;;;2.63;1.27;;;14.30;64.60;;;;;;6123985;22;20056;-83
2022/04/11 10:32:35;;;;;;;3.53;1.20;;;14.20;65.10;;;;;;6170018;23;20012;-82
2022/04/11 10:35:34;;;;;;;3.22;1.52;;;14.40;64.90;;;;;;6196983;23;20013;-82
2022/04/11 10:39:12;;;;;;;2.95;1.30;;;14.20;65.20;;;;;;6198268;23;20024;-80
2022/04/11 10:42:06;;;;;;;4.32;1.50;;;14.20;66.00;;;;;;6075329;23;20022;-80
2022/04/11 10:44:53;;;;;;;3.60;1.25;;;14.30;65.40;;;;;;6026449;23;20014;-80
2022/04/11 10:47:45;;;;;;;2.95;1.67;;;14.50;65.20;;;;;;6027637;23;20015;-81
2022/04/11 10:50:53;;;;;;;2.75;1.20;;;14.60;64.90;;;;;;6026494;23;20007;-80
2022/04/11 10:54:03;;;;;;;4.32;1.65;;;15.00;65.20;;;;;;6026161;23;20023;-82
2022/04/11 10:57:30;;;;;;;4.15;1.45;;;15.10;64.30;;;;;;6047431;23;20078;-81
2022/04/11 11:00:23;;;;;;;4.60;1.83;;;15.40;64.80;;;;;;6024385;23;20011;-82
2022/04/11 11:02:59;;;;;;;2.67;1.38;;;15.50;63.80;;;;;;6049096;23;20018;-82
2022/04/11 11:05:44;;;;;;;7.35;2.10;;;15.70;64.10;;;;;;6050181;23;20018;-81
2022/04/11 11:08:11;;;;;;;3.65;1.50;;;15.80;62.50;;;;;;6049539;23;20033;-82
2022/04/11 11:10:50;;;;;;;3.75;1.35;;;15.90;63.50;;;;;;6026261;23;20054;-81
2022/04/11 11:17:41;;;;;;;3.97;1.55;;;16.70;62.80;;;;;;6110600;23;20030;-80
2022/04/11 11:46:21;;;;;;;2.53;1.20;;;23.70;49.70;;;;;;6081405;22;20086;-82
2022/04/11 11:49:14;;;;;;;2.38;1.13;;;23.80;49.30;;;;;;6122921;23;20030;-82
2022/04/11 12:47:16;;;;;;;1.77;0.90;;;28.80;41.30;;;;;;6167349;22;20095;-85
2022/04/11 12:50:29;;;;;;;6.63;2.00;;;31.00;41.60;;;;;;6207115;23;20181;-84
2022/04/11 12:53:16;;;;;;;2.53;0.93;;;31.10;39.90;;;;;;6237244;23;20122;-82
2022/04/11 12:56:34;;;;;;;3.63;1.10;;;31.60;41.40;;;;;;6225992;23;20000;-86
2022/04/11 12:59:43;;;;;;;2.50;1.20;;;33.40;39.40;;;;;;6099213;23;20228;-82
2022/04/11 13:02:14;;;;;;;3.67;1.52;;;34.40;40.20;;;;;;6094357;23;20375;-83
2022/04/11 13:04:54;;;;;;;2.95;1.33;;;33.60;39.10;;;;;;6130958;23;20010;-83
2022/04/11 13:07:38;;;;;;;;;;;;;;;;;;;;;
2022/04/11 13:10:10;;;;;;;3.05;1.50;;;32.60;38.30;;;;;;6103729;23;20047;-83
2022/04/11 13:15:30;;;;;;;3.42;1.83;;;32.30;39.50;;;;;;6127034;23;20330;-83
2022/04/11 13:20:56;;;;;;;3.17;1.10;;;33.20;38.80;;;;;;6126099;23;20002;-82
2022/04/11 13:23:25;;;;;;;2.58;1.30;;;34.60;38.90;;;;;;6157600;23;20271;-81
2022/04/11 13:25:51;;;;;;;2.45;1.42;;;35.10;37.90;;;;;;6169052;23;20040;-82
2022/04/11 13:28:43;;;;;;;2.90;1.48;;;35.60;38.20;;;;;;6145745;23;19996;-82
2022/04/11 13:31:35;;;;;;;2.65;1.65;;;36.00;37.80;;;;;;6171305;23;20306;-82
2022/04/11 13:34:06;;;;;;;2.38;1.30;;;35.10;37.10;;;;;;6168200;23;20315;-83
2022/04/11 13:36:37;;;;;;;3.08;1.63;;;34.10;36.80;;;;;;6196272;23;20039;-82
2022/04/11 13:39:06;;;;;;;3.60;1.63;;;36.00;37.40;;;;;;6273937;22;20174;-83
2022/04/11 13:41:33;;;;;;;3.75;1.90;;;36.40;36.70;;;;;;6272790;22;20005;-82
2022/04/11 13:44:11;;;;;;;3.80;1.70;;;35.10;36.70;;;;;;6222508;23;20309;-83
2022/04/11 13:46:45;;;;;;;3.28;1.65;;;34.60;37.00;;;;;;6183588;23;20019;-83
2022/04/11 13:49:12;;;;;;;2.58;1.50;;;35.80;37.80;;;;;;6197064;23;20004;-83
2022/04/11 13:51:48;;;;;;;3.17;1.58;;;35.70;36.60;;;;;;6221025;23;20071;-83
2022/04/11 13:54:21;;;;;;;3.00;1.73;;;34.30;37.10;;;;;;6196208;23;20258;-83
2022/04/11 13:56:48;;;;;;;3.50;1.75;;;34.30;36.50;;;;;;6221755;23;20066;-83
2022/04/11 13:59:36;;;;;;;2.50;1.60;;;34.30;36.60;;;;;;6221728;23;20019;-83
2022/04/11 14:05:49;;;;;;;2.70;1.75;;;34.20;36.70;;;;;;6196044;23;20071;-83
2022/04/11 14:08:22;;;;;;;3.17;1.80;;;34.30;37.30;;;;;;6196447;23;20172;-84
2022/04/11 14:10:50;;;;;;;2.40;1.70;;;34.10;36.40;;;;;;6192758;23;20016;-84
2022/04/11 14:13:22;;;;;;;3.25;1.80;;;35.50;37.00;;;;;;6196476;23;20001;-84
2022/04/11 14:15:50;;;;;;;3.25;1.90;;;35.10;35.80;;;;;;6202722;23;20499;-84
2022/04/11 14:18:17;;;;;;;2.00;1.20;;;35.50;35.90;;;;;;6251681;23;20038;-84
2022/04/11 14:20:43;;;;;;;3.20;1.30;;;36.00;39.50;;;;;;6225585;23;20024;-84
2022/04/11 14:23:10;;;;;;;2.97;1.80;;;35.40;36.20;;;;;;6252608;23;20000;-82
2022/04/11 14:25:36;;;;;;;2.90;1.60;;;35.00;36.40;;;;;;6226584;23;20012;-84
2022/04/11 14:28:05;;;;;;;2.97;1.70;;;35.70;37.50;;;;;;6226973;23;20027;-84
2022/04/11 14:30:32;;;;;;;2.78;1.67;;;36.30;35.60;;;;;;6225985;22;20080;-85
2022/04/11 14:32:59;;;;;;;1.92;1.30;;;36.00;36.60;;;;;;6248618;23;20054;-83
2022/04/11 14:35:31;;;;;;;3.90;1.83;;;36.90;37.40;;;;;;6252134;23;20008;-83
2022/04/11 14:37:58;;;;;;;3.35;1.88;;;36.80;35.40;;;;;;6226806;23;20004;-83
2022/04/11 14:40:29;;;;;;;2.95;1.90;;;36.10;36.40;;;;;;6226112;23;20004;-82
2022/04/11 14:42:56;;;;;;;2.97;1.95;;;34.60;36.70;;;;;;6226311;23;20000;-84
2022/04/11 14:45:23;;;;;;;3.33;1.95;;;34.00;39.80;;;;;;6250363;22;20444;-84
2022/04/11 14:47:50;;;;;;;3.00;1.80;;;34.80;36.30;;;;;;6225072;23;20004;-83
2022/04/11 14:50:18;;;;;;;4.10;1.67;;;34.70;39.20;;;;;;6226301;23;20020;-83
2022/04/11 14:52:45;;;;;;;2.90;2.03;;;36.00;36.10;;;;;;6225445;23;20011;-84
2022/04/11 14:55:11;;;;;;;3.65;1.70;;;35.60;36.10;;;;;;6226301;23;19996;-83
2022/04/11 14:57:38;;;;;;;3.65;2.10;;;36.60;37.10;;;;;;6225996;23;20027;-84
2022/04/11 15:00:04;;;;;;;3.97;2.20;;;36.50;35.70;;;;;;6224640;22;20102;-82
2022/04/11 15:02:37;;;;;;;3.35;2.20;;;35.40;37.90;;;;;;6251852;23;20015;-82
2022/04/11 15:05:06;;;;;;;2.83;1.80;;;35.40;36.30;;;;;;6226643;23;20012;-82
2022/04/11 15:07:36;;;;;;;2.97;2.00;;;34.40;36.30;;;;;;6228617;23;20007;-82
2022/04/11 15:10:03;;;;;;;3.47;1.95;;;33.60;38.00;;;;;;6228867;23;20189;-81
2022/04/11 15:12:30;;;;;;;2.88;1.73;;;34.00;38.40;;;;;;6228067;23;20152;-83
2022/04/11 15:15:00;;;;;;;3.83;1.80;;;33.20;37.50;;;;;;6227743;23;20031;-83
2022/04/11 15:17:26;;;;;;;2.85;2.00;;;33.40;38.00;;;;;;6221058;23;20040;-83
2022/04/11 15:19:53;;;;;;;3.72;1.90;;;33.30;37.40;;;;;;6272366;22;20063;-83
2022/04/11 15:22:27;;;;;;;3.47;1.80;;;34.00;37.40;;;;;;6273597;22;20008;-84
2022/04/11 15:25:00;;;;;;;2.80;1.50;;;34.90;36.40;;;;;;6273518;22;20796;-84
2022/04/11 15:27:27;;;;;;;3.22;2.05;;;36.00;38.50;;;;;;6277263;22;20346;-83
2022/04/11 15:29:54;;;;;;;3.85;1.77;;;36.40;36.00;;;;;;6246246;23;20106;-84
2022/04/11 15:32:21;;;;;;;3.08;1.30;;;35.90;36.30;;;;;;6218984;23;20081;-83
2022/04/11 15:34:47;;;;;;;2.97;1.85;;;36.60;37.90;;;;;;6273073;22;20051;-84
2022/04/11 15:37:22;;;;;;;2.85;1.98;;;36.70;36.70;;;;;;6223623;23;20008;-82
2022/04/11 15:39:49;;;;;;;2.53;1.88;;;36.10;35.40;;;;;;6222297;23;20064;-83
2022/04/11 15:42:19;;;;;;;3.13;1.92;;;34.70;35.60;;;;;;6222762;23;20004;-83
2022/04/11 15:44:45;;;;;;;3.83;1.95;;;33.40;37.20;;;;;;6222992;23;20113;-83
2022/04/11 15:47:12;;;;;;;2.65;1.80;;;33.20;39.40;;;;;;6271273;22;20238;-83
2022/04/11 15:49:42;;;;;;;5.63;2.10;;;34.60;37.00;;;;;;6216274;23;20004;-85
2022/04/11 15:52:10;;;;;;;2.17;1.55;;;34.40;37.10;;;;;;6248176;23;20098;-82
2022/04/11 15:54:42;;;;;;;2.50;1.50;;;35.30;37.10;;;;;;6227646;23;20015;-82
2022/04/11 15:57:09;;;;;;;3.40;1.63;;;34.70;37.00;;;;;;6283752;22;20052;-83
2022/04/11 15:59:41;;;;;;;3.42;2.40;;;33.90;37.30;;;;;;6263098;22;20013;-82
2022/04/11 16:07:46;;;;;;;3.20;1.85;;;31.80;37.80;;;;;;6121029;23;20066;-84
2022/04/11 16:10:13;;;;;;;3.55;2.05;;;32.80;38.00;;;;;;6109136;23;20064;-85
2022/04/11 16:12:47;;;;;;;2.95;2.00;;;33.00;40.30;;;;;;6109100;23;20006;-85
2022/04/11 16:15:13;;;;;;;4.00;1.95;;;33.30;37.10;;;;;;6071199;23;20317;-85
2022/04/11 16:18:20;;;;;;;3.17;1.87;;;33.10;37.60;;;;;;6113272;23;20010;-84
2022/04/11 18:00:17;;;;;;;4.57;2.88;;;18.30;52.90;;;;;;5991422;24;20012;-82
2022/04/11 18:02:49;;;;;;;5.50;2.45;;;18.00;54.90;;;;;;6020516;23;20004;-83
2022/04/11 18:05:16;;;;;;;5.15;2.33;;;17.80;54.90;;;;;;5978233;23;20015;-82
2022/04/11 18:07:47;;;;;;;5.82;2.80;;;17.50;54.40;;;;;;5989909;23;20032;-83
2022/04/11 18:10:13;;;;;;;5.05;2.50;;;17.30;55.00;;;;;;5978703;23;20012;-82
2022/04/11 18:12:40;;;;;;;9.07;2.90;;;17.00;55.30;;;;;;5998651;23;20008;-81
2022/04/11 18:15:08;;;;;;;4.65;2.60;;;16.80;56.60;;;;;;6000366;23;19996;-82
2022/04/11 18:17:35;;;;;;;5.45;2.78;;;16.70;57.80;;;;;;6022106;23;20023;-81
2022/04/11 18:20:01;;;;;;;5.65;2.40;;;16.60;56.80;;;;;;5975832;23;20008;-80
2022/04/11 18:22:27;;;;;;;4.25;2.58;;;16.50;59.00;;;;;;6017828;23;20004;-84
2022/04/11 18:24:53;;;;;;;8.32;2.80;;;16.30;59.20;;;;;;6018132;23;20047;-82
2022/04/11 18:27:19;;;;;;;4.65;2.33;;;16.20;58.30;;;;;;6001017;23;20015;-81
2022/04/11 18:32:29;;;;;;;3.85;2.20;;;16.00;59.30;;;;;;6056748;23;20224;-82
2022/04/11 18:34:57;;;;;;;5.38;2.60;;;16.00;61.70;;;;;;6079950;23;20011;-82
2022/04/11 18:37:24;;;;;;;7.07;2.97;;;15.80;59.90;;;;;;6052555;23;20074;-80
2022/04/11 18:39:51;;;;;;;5.57;3.17;;;15.70;59.20;;;;;;6052138;23;20018;-80
2022/04/11 18:42:17;;;;;;;6.82;3.67;;;15.60;59.90;;;;;;6078234;23;20011;-82
2022/04/11 18:44:44;;;;;;;5.43;3.38;;;15.40;60.50;;;;;;6080373;23;20014;-82
2022/04/11 18:47:12;;;;;;;7.00;2.97;;;15.30;61.20;;;;;;6137273;23;20017;-84
2022/04/11 18:49:41;;;;;;;5.67;3.93;;;15.10;60.80;;;;;;6143711;23;20005;-83
2022/04/11 18:52:08;;;;;;;8.43;4.40;;;15.00;62.00;;;;;;6169470;23;20047;-82
2022/04/11 18:54:34;;;;;;;11.65;4.90;;;14.90;61.50;;;;;;6142422;23;20192;-82
2022/04/11 18:57:00;;;;;;;7.80;4.25;;;14.80;63.20;;;;;;6143617;23;20009;-82
2022/04/11 18:59:26;;;;;;;6.45;3.95;;;14.70;63.90;;;;;;6134059;23;20539;-82
2022/04/11 19:01:51;;;;;;;7.53;3.90;;;14.70;62.90;;;;;;6082842;23;20022;-84
2022/04/11 19:04:17;;;;;;;7.25;4.20;;;14.60;62.90;;;;;;6086432;23;20064;-83
2022/04/11 19:06:45;;;;;;;9.07;4.15;;;14.50;61.70;;;;;;6058391;23;20014;-82
2022/04/11 19:09:10;;;;;;;7.18;4.05;;;14.40;61.70;;;;;;6060407;23;20029;-82
2022/04/11 19:11:37;;;;;;;10.43;4.32;;;14.40;62.10;;;;;;6060875;23;19991;-84
2022/04/11 19:14:19;;;;;;;6.10;3.65;;;14.30;62.40;;;;;;6060307;23;20376;-82
2022/04/11 19:16:45;;;;;;;5.20;3.50;;;14.10;61.90;;;;;;6048513;23;20031;-84
2022/04/11 19:19:11;;;;;;;7.03;4.20;;;14.10;62.30;;;;;;6077866;23;20019;-81
2022/04/11 19:21:37;;;;;;;9.32;3.60;;;14.00;62.90;;;;;;6053056;23;20189;-83
2022/04/11 19:24:03;;;;;;;7.28;4.10;;;14.00;63.70;;;;;;6052244;23;20011;-83
2022/04/11 19:26:29;;;;;;;5.88;3.70;;;13.90;63.20;;;;;;6077906;23;20002;-84
2022/04/11 19:28:59;;;;;;;7.20;4.03;;;13.80;64.20;;;;;;6053202;23;20014;-85
2022/04/11 19:31:26;;;;;;;7.20;3.65;;;13.80;64.20;;;;;;6071878;23;20085;-85
2022/04/11 19:33:51;;;;;;;7.75;4.18;;;13.60;65.30;;;;;;6108670;23;20303;-85
2022/04/11 19:36:18;;;;;;;8.15;3.78;;;13.50;65.20;;;;;;6107725;23;20054;-83
2022/04/11 19:38:45;;;;;;;6.65;3.75;;;13.40;67.10;;;;;;6166297;23;20056;-85
2022/04/11 19:41:16;;;;;;;7.70;3.90;;;13.40;66.50;;;;;;6173648;23;20013;-80
2022/04/11 19:43:42;;;;;;;7.80;4.03;;;13.30;67.10;;;;;;6147536;23;20032;-83
2022/04/11 19:46:08;;;;;;;8.35;4.30;;;13.20;67.20;;;;;;6143755;23;20320;-82
2022/04/11 19:51:21;;;;;;;6.85;3.75;;;13.10;70.70;;;;;;6142488;23;20059;-81
2022/04/11 19:53:53;;;;;;;7.55;4.22;;;13.00;68.80;;;;;;6146235;23;20065;-79
2022/04/11 19:56:20;;;;;;;8.85;4.20;;;12.90;68.90;;;;;;6144457;23;20016;-80
2022/04/11 19:58:47;;;;;;;8.63;4.63;;;12.80;69.70;;;;;;6096984;23;20061;-84
2022/04/11 20:01:14;;;;;;;8.38;4.55;;;12.80;69.70;;;;;;6145468;23;20018;-81
2022/04/11 20:03:43;;;;;;;7.18;3.85;;;12.70;70.30;;;;;;6149814;23;20068;-81
2022/04/11 20:06:10;;;;;;;8.05;4.30;;;12.70;70.60;;;;;;6147344;23;20061;-80
2022/04/11 20:08:38;;;;;;;8.00;4.78;;;12.60;71.20;;;;;;6153557;23;20013;-80
2022/04/11 20:11:05;;;;;;;;;;;12.60;70.90;;;;;;6151886;23;20001;-81
2022/04/11 20:13:33;;;;;;;8.32;4.72;;;12.50;71.00;;;;;;6128907;23;19913;-80
2022/04/11 20:15:59;;;;;;;9.07;4.70;;;12.50;71.30;;;;;;6157603;23;20014;-81
2022/04/11 20:18:25;;;;;;;9.98;4.85;;;12.40;72.00;;;;;;6169321;23;20009;-84
2022/04/11 20:20:51;;;;;;;11.45;5.38;;;12.30;73.00;;;;;;6143512;23;20032;-83
2022/04/11 20:23:17;;;;;;;11.27;5.65;;;12.30;72.30;;;;;;6140931;23;20001;-82
2022/04/11 20:25:43;;;;;;;10.98;4.97;;;12.20;72.30;;;;;;6140210;23;20005;-80
2022/04/11 20:28:09;;;;;;;9.57;5.00;;;12.20;72.50;;;;;;6164545;23;20001;-83
2022/04/11 20:30:35;;;;;;;11.32;5.32;;;12.10;72.60;;;;;;6140117;23;20324;-82
2022/04/11 20:33:05;;;;;;;8.65;4.95;;;12.10;73.00;;;;;;6118152;23;20251;-82
2022/04/11 20:35:31;;;;;;;10.20;5.25;;;12.10;73.00;;;;;;6142789;23;20013;-84
2022/04/11 20:37:57;;;;;;;9.43;5.13;;;12.00;73.50;;;;;;6142081;23;20009;-79
2022/04/11 20:40:24;;;;;;;7.75;4.35;;;11.90;73.70;;;;;;6142268;23;20018;-82
2022/04/11 20:42:50;;;;;;;9.32;5.25;;;11.90;74.30;;;;;;6141126;23;20287;-83
2022/04/11 20:45:16;;;;;;;8.98;4.82;;;11.80;74.50;;;;;;6139126;23;20020;-84
2022/04/11 20:47:41;;;;;;;9.00;4.93;;;11.80;74.70;;;;;;6166157;23;20017;-81
2022/04/11 20:50:09;;;;;;;8.52;5.20;;;11.70;75.70;;;;;;6164171;23;20002;-82
2022/04/11 20:52:35;;;;;;;9.07;5.10;;;11.60;75.30;;;;;;6138099;23;20012;-81
2022/04/11 20:57:45;;;;;;;10.10;4.95;;;11.60;75.50;;;;;;6143209;23;20005;-81
2022/04/11 21:00:12;;;;;;;10.13;5.53;;;11.60;75.30;;;;;;6142214;23;20136;-82
2022/04/11 21:02:39;;;;;;;9.15;5.22;;;11.60;75.30;;;;;;6142743;23;20021;-84
2022/04/11 21:05:06;;;;;;;9.25;5.05;;;11.50;75.30;;;;;;6142078;23;20005;-82
2022/04/11 21:07:32;;;;;;;8.95;5.72;;;11.50;75.40;;;;;;6169381;23;20053;-83
2022/04/11 21:09:58;;;;;;;9.65;4.63;;;11.50;75.30;;;;;;6154396;23;20044;-81
2022/04/11 21:12:24;;;;;;;9.52;5.22;;;11.40;75.70;;;;;;6164317;23;20013;-81
2022/04/11 21:14:50;;;;;;;12.80;5.55;;;11.40;76.10;;;;;;6140527;23;20064;-80
2022/04/11 21:17:16;;;;;;;9.73;5.45;;;11.30;75.40;;;;;;6111594;23;20295;-80
2022/04/11 21:19:42;;;;;;;9.65;5.60;;;11.30;75.50;;;;;;6135257;23;20021;-82
2022/04/11 21:22:09;;;;;;;11.25;4.95;;;11.20;75.90;;;;;;6134646;23;20009;-79
2022/04/11 21:24:35;;;;;;;9.50;5.47;;;11.30;76.70;;;;;;6137142;23;20030;-82
2022/04/11 21:27:01;;;;;;;9.13;5.18;;;11.30;75.60;;;;;;6136838;23;20010;-82
2022/04/11 21:29:28;;;;;;;11.07;6.00;;;11.30;75.30;;;;;;6134569;23;20191;-82
2022/04/11 21:31:54;;;;;;;8.90;5.25;;;11.30;75.60;;;;;;6128963;23;20319;-80
2022/04/11 21:34:20;;;;;;;10.30;4.85;;;11.20;75.80;;;;;;6134309;23;20014;-81
2022/04/11 21:36:46;;;;;;;9.23;5.30;;;11.20;75.80;;;;;;6164453;23;20046;-82
2022/04/11 21:39:12;;;;;;;8.80;5.00;;;11.20;75.80;;;;;;6162656;23;20271;-83
2022/04/11 21:41:38;;;;;;;10.13;5.18;;;11.10;75.80;;;;;;6137258;23;20017;-83
2022/04/11 21:44:05;;;;;;;8.63;5.22;;;11.00;76.80;;;;;;6136667;23;20273;-82
2022/04/11 21:46:31;;;;;;;11.00;6.10;;;10.90;76.50;;;;;;6164645;23;20078;-85
2022/04/11 21:49:00;;;;;;;10.95;5.78;;;10.90;76.40;;;;;;6116667;23;20125;-80
2022/04/11 21:51:26;;;;;;;9.68;5.40;;;10.90;77.60;;;;;;6144118;23;20013;-83
2022/04/11 21:53:53;;;;;;;10.00;5.70;;;10.80;77.10;;;;;;6140455;23;20350;-84
2022/04/11 21:56:27;;;;;;;8.80;5.32;;;10.80;77.30;;;;;;6160465;23;20408;-84
2022/04/11 21:59:05;;;;;;;10.27;5.50;;;10.80;77.80;;;;;;6138840;23;20013;-83
2022/04/11 22:01:34;;;;;;;10.63;5.68;;;10.80;77.10;;;;;;6160219;23;20017;-84
2022/04/11 22:04:03;;;;;;;10.32;5.65;;;10.70;78.30;;;;;;6131273;23;20100;-83
2022/04/11 22:06:28;;;;;;;;;;;10.60;78.40;;;;;;6104959;23;20005;-85
2022/04/11 22:08:55;;;;;;;9.45;5.32;;;10.50;78.60;;;;;;6097159;23;19901;-84
2022/04/11 22:11:21;;;;;;;9.38;5.05;;;10.40;79.00;;;;;;6074841;23;20007;-84
2022/04/11 22:13:47;;;;;;;10.07;5.32;;;10.30;80.30;;;;;;6072942;23;20010;-84
2022/04/11 22:16:13;;;;;;;8.27;4.95;;;10.30;80.00;;;;;;6075903;23;20037;-84
2022/04/11 22:19:30;;;;;;;13.07;6.35;;;10.30;80.40;;;;;;6078927;23;20216;-84
2022/04/11 22:21:56;;;;;;;11.27;5.18;;;10.30;80.10;;;;;;5942674;24;20084;-84
2022/04/11 22:24:34;;;;;;;12.38;5.40;;;10.30;80.50;;;;;;6061126;23;20312;-85
2022/04/11 22:27:03;;;;;;;11.05;5.45;;;10.20;80.30;;;;;;6073202;23;20354;-84